Time;durP1;ratioP1;P1;durP2;ratioP2;P2;SDS_P1;SDS_P2;PMS_P1;PMS_P2;Temp;Humidity;BMP_temperature;BMP_pressure;BME280_temperature;BME280_humidity;BME280_pressure;Samples;Min_cycle;Max_cycle;Signal;HPM_P1;HPM_P2
2022/11/18 00:03:00;;;;;;;0.87;0.87;;;;;;;;;;5077655;28;20267;-80
2022/11/18 00:06:06;;;;;;;0.00;0.00;;;;;;;;;;5094873;22;20186;-82
2022/11/18 00:08:39;;;;;;;0.00;0.00;;;;;;;;;;5058005;28;20222;-82
2022/11/18 00:14:20;;;;;;;0.00;0.00;;;;;;;;;;5038414;28;20197;-82
2022/11/18 00:16:52;;;;;;;0.00;0.00;;;;;;;;;;5028039;28;20213;-82
2022/11/18 00:33:17;;;;;;;0.00;0.00;;;;;;;;;;5151023;22;20456;-82
2022/11/18 00:39:09;;;;;;;0.00;0.00;;;;;;;;;;5200345;22;20218;-80
2022/11/18 00:44:38;;;;;;;0.00;0.00;;;;;;;;;;5290799;22;20231;-81
2022/11/18 00:47:07;;;;;;;0.00;0.00;;;;;;;;;;5077386;28;20198;-81
2022/11/18 00:52:34;;;;;;;0.00;0.00;;;;;;;;;;5057287;28;20222;-82
2022/11/18 00:55:07;;;;;;;0.00;0.00;;;;;;;;;;5055788;28;20230;-81
2022/11/18 00:58:06;;;;;;;0.00;0.00;;;;;;;;;;5057276;28;20210;-82
2022/11/18 01:33:08;;;;;;;0.00;0.00;;;;;;;;;;5103911;22;20219;-81
2022/11/18 01:36:03;;;;;;;0.00;0.00;;;;;;;;;;5060177;28;20184;-82
2022/11/18 02:27:34;;;;;;;0.00;0.00;;;;;;;;;;5056119;28;20258;-80
2022/11/18 02:33:16;;;;;;;0.00;0.00;;;;;;;;;;5036398;28;20215;-81
2022/11/18 02:40:13;;;;;;;0.00;0.00;;;;;;;;;;5038479;28;20163;-81
2022/11/18 03:18:29;;;;;;;0.00;0.00;;;;;;;;;;5059048;28;20214;-80
2022/11/18 03:21:18;;;;;;;0.00;0.00;;;;;;;;;;5069664;28;20191;-81
2022/11/18 03:23:54;;;;;;;0.00;0.00;;;;;;;;;;5074101;28;20628;-80
2022/11/18 03:36:53;;;;;;;0.00;0.00;;;;;;;;;;5053609;28;20162;-81
2022/11/18 03:39:29;;;;;;;0.00;0.00;;;;;;;;;;5049797;28;20193;-80
2022/11/18 03:42:08;;;;;;;0.00;0.00;;;;;;;;;;5048245;28;20326;-80
2022/11/18 03:44:47;;;;;;;0.00;0.00;;;;;;;;;;5051335;28;20219;-81
2022/11/18 03:47:23;;;;;;;0.00;0.00;;;;;;;;;;5051640;28;20256;-81
2022/11/18 03:49:54;;;;;;;0.00;0.00;;;;;;;;;;5054889;28;20196;-81
2022/11/18 03:52:34;;;;;;;0.00;0.00;;;;;;;;;;5052286;28;20267;-81
2022/11/18 03:55:21;;;;;;;0.00;0.00;;;;;;;;;;5050273;28;20184;-80
2022/11/18 03:57:59;;;;;;;0.00;0.00;;;;;;;;;;5053734;28;20195;-82
2022/11/18 04:04:53;;;;;;;0.00;0.00;;;;;;;;;;5008560;28;20232;-82
2022/11/18 04:07:26;;;;;;;0.00;0.00;;;;;;;;;;5007873;28;20205;-80
2022/11/18 04:10:00;;;;;;;0.00;0.00;;;;;;;;;;5007928;28;20265;-81
2022/11/18 04:12:31;;;;;;;0.00;0.00;;;;;;;;;;5026752;28;20227;-80
2022/11/18 04:15:00;;;;;;;0.00;0.00;;;;;;;;;;5048661;28;20195;-81
2022/11/18 04:17:29;;;;;;;0.00;0.00;;;;;;;;;;5045959;28;20214;-80
2022/11/18 04:19:58;;;;;;;0.00;0.00;;;;;;;;;;5042953;28;20207;-80
2022/11/18 04:22:27;;;;;;;0.00;0.00;;;;;;;;;;5047590;28;20220;-81
2022/11/18 04:24:57;;;;;;;0.00;0.00;;;;;;;;;;5044389;28;20310;-82
2022/11/18 04:27:26;;;;;;;0.00;0.00;;;;;;;;;;5042146;28;20205;-81
2022/11/18 04:29:55;;;;;;;0.00;0.00;;;;;;;;;;5026820;28;20208;-80
2022/11/18 04:32:24;;;;;;;0.00;0.00;;;;;;;;;;5026309;28;20224;-80
2022/11/18 04:34:53;;;;;;;0.00;0.00;;;;;;;;;;5025104;28;20667;-81
2022/11/18 04:37:22;;;;;;;0.00;0.00;;;;;;;;;;5029627;28;20208;-80
2022/11/18 04:39:51;;;;;;;0.00;0.00;;;;;;;;;;5031744;28;20200;-81
2022/11/18 04:42:24;;;;;;;0.00;0.00;;;;;;;;;;5033730;28;20216;-80
2022/11/18 04:45:05;;;;;;;0.00;0.00;;;;;;;;;;5032463;28;20209;-81
2022/11/18 04:47:34;;;;;;;0.00;0.00;;;;;;;;;;5031088;28;20188;-81
2022/11/18 04:50:03;;;;;;;0.00;0.00;;;;;;;;;;5051930;28;20200;-81
2022/11/18 04:52:35;;;;;;;0.00;0.00;;;;;;;;;;5049259;28;20234;-80
2022/11/18 04:55:05;;;;;;;0.00;0.00;;;;;;;;;;5051988;28;20651;-81
2022/11/18 04:57:35;;;;;;;0.00;0.00;;;;;;;;;;5047485;28;20582;-81
2022/11/18 05:00:05;;;;;;;0.00;0.00;;;;;;;;;;5034079;28;20207;-80
2022/11/18 05:02:33;;;;;;;0.00;0.00;;;;;;;;;;5033107;28;20217;-80
2022/11/18 05:05:02;;;;;;;0.00;0.00;;;;;;;;;;5037442;28;20231;-82
2022/11/18 05:07:31;;;;;;;0.00;0.00;;;;;;;;;;5047887;28;20187;-81
2022/11/18 05:10:27;;;;;;;0.00;0.00;;;;;;;;;;5058898;28;20215;-82
2022/11/18 05:13:01;;;;;;;0.00;0.00;;;;;;;;;;5057772;28;20207;-81
2022/11/18 05:15:41;;;;;;;0.00;0.00;;;;;;;;;;5058707;28;20238;-82
2022/11/18 05:18:31;;;;;;;0.00;0.00;;;;;;;;;;5058720;28;20256;-81
2022/11/18 05:21:14;;;;;;;0.00;0.00;;;;;;;;;;5030942;28;20207;-81
2022/11/18 05:23:43;;;;;;;0.00;0.00;;;;;;;;;;5058330;28;20207;-81
2022/11/18 05:26:17;;;;;;;0.00;0.00;;;;;;;;;;5056646;28;20183;-81
2022/11/18 05:28:52;;;;;;;0.00;0.00;;;;;;;;;;5060000;28;20171;-81
2022/11/18 05:31:59;;;;;;;0.00;0.00;;;;;;;;;;5060060;28;20194;-82
2022/11/18 05:54:25;;;;;;;0.00;0.00;;;;;;;;;;6218183;23;20175;-82
2022/11/18 05:56:54;;;;;;;0.00;0.00;;;;;;;;;;6219436;23;20267;-81
2022/11/18 05:59:29;;;;;;;0.00;0.00;;;;;;;;;;6220919;23;20189;-82
2022/11/18 06:15:25;;;;;;;0.00;0.00;;;;;;;;;;6248894;23;20176;-82
2022/11/18 06:18:15;;;;;;;0.00;0.00;;;;;;;;;;6246764;23;20184;-80
2022/11/18 06:23:56;;;;;;;0.00;0.00;;;;;;;;;;6242162;23;20225;-81
2022/11/18 06:26:25;;;;;;;0.00;0.00;;;;;;;;;;6232663;23;20174;-80
2022/11/18 06:28:56;;;;;;;0.00;0.00;;;;;;;;;;6241394;23;20162;-80
2022/11/18 06:31:25;;;;;;;0.00;0.00;;;;;;;;;;6224675;23;20171;-79
2022/11/18 06:33:54;;;;;;;0.00;0.00;;;;;;;;;;6224303;23;20657;-79
2022/11/18 06:36:22;;;;;;;0.10;0.10;;;;;;;;;;6224803;23;20190;-80
2022/11/18 06:38:51;;;;;;;0.10;0.10;;;;;;;;;;6224647;23;20237;-79
2022/11/18 06:41:19;;;;;;;0.00;0.00;;;;;;;;;;6225360;23;20178;-79
2022/11/18 06:43:47;;;;;;;0.00;0.00;;;;;;;;;;6225048;23;20653;-79
2022/11/18 06:49:04;;;;;;;0.03;0.03;;;;;;;;;;6219152;23;20187;-80
2022/11/18 06:51:33;;;;;;;0.00;0.00;;;;;;;;;;6219405;23;20186;-79
2022/11/18 06:54:01;;;;;;;0.00;0.00;;;;;;;;;;6218605;23;20244;-79
2022/11/18 06:56:37;;;;;;;0.00;0.00;;;;;;;;;;6217393;23;20213;-79
2022/11/18 06:59:06;;;;;;;0.00;0.00;;;;;;;;;;6218590;23;20175;-79
2022/11/18 07:01:37;;;;;;;0.00;0.00;;;;;;;;;;6218786;23;20241;-79
2022/11/18 07:04:06;;;;;;;0.00;0.00;;;;;;;;;;6219279;23;20190;-79
2022/11/18 07:06:35;;;;;;;0.00;0.00;;;;;;;;;;6219768;23;20610;-79
2022/11/18 07:09:05;;;;;;;0.00;0.00;;;;;;;;;;6218465;23;20626;-79
2022/11/18 07:11:37;;;;;;;0.00;0.00;;;;;;;;;;6218370;23;20194;-79
2022/11/18 07:14:05;;;;;;;0.00;0.00;;;;;;;;;;6222540;23;20183;-80
2022/11/18 07:16:34;;;;;;;0.00;0.00;;;;;;;;;;6221142;23;20198;-79
2022/11/18 07:19:08;;;;;;;0.00;0.00;;;;;;;;;;6218856;23;20182;-79
2022/11/18 07:21:37;;;;;;;0.00;0.00;;;;;;;;;;6220465;23;20601;-79
2022/11/18 07:24:06;;;;;;;0.00;0.00;;;;;;;;;;6224790;23;20610;-80
2022/11/18 07:26:36;;;;;;;0.00;0.00;;;;;;;;;;6220384;23;20356;-79
2022/11/18 07:29:08;;;;;;;0.00;0.00;;;;;;;;;;6229385;23;20555;-80
2022/11/18 07:31:38;;;;;;;0.10;0.10;;;;;;;;;;6228846;23;20201;-80
2022/11/18 07:34:08;;;;;;;0.00;0.00;;;;;;;;;;6224442;23;20606;-79
2022/11/18 07:36:37;;;;;;;0.00;0.00;;;;;;;;;;6222868;23;20193;-80
2022/11/18 07:39:06;;;;;;;0.00;0.00;;;;;;;;;;6227894;23;20178;-80
2022/11/18 07:41:35;;;;;;;0.00;0.00;;;;;;;;;;6227627;23;20173;-80
2022/11/18 07:44:07;;;;;;;0.00;0.00;;;;;;;;;;6231464;23;20177;-80
2022/11/18 07:46:37;;;;;;;0.00;0.00;;;;;;;;;;6229221;23;20162;-80
2022/11/18 07:49:07;;;;;;;0.00;0.00;;;;;;;;;;6229601;23;20173;-80
2022/11/18 07:51:41;;;;;;;0.00;0.00;;;;;;;;;;6230005;23;20548;-80
2022/11/18 07:54:10;;;;;;;0.00;0.00;;;;;;;;;;6231309;23;20182;-80
2022/11/18 07:56:38;;;;;;;0.00;0.00;;;;;;;;;;6229028;23;20205;-79
2022/11/18 07:59:07;;;;;;;0.00;0.00;;;;;;;;;;6229194;23;20173;-80
2022/11/18 08:01:36;;;;;;;0.00;0.00;;;;;;;;;;6227508;23;20178;-80
2022/11/18 08:04:07;;;;;;;0.10;0.10;;;;;;;;;;6230390;23;20213;-80
2022/11/18 08:06:36;;;;;;;0.00;0.00;;;;;;;;;;6226285;23;20194;-80
2022/11/18 08:09:07;;;;;;;0.00;0.00;;;;;;;;;;6228577;23;20189;-80
2022/11/18 08:11:37;;;;;;;0.00;0.00;;;;;;;;;;6237641;23;20181;-79
2022/11/18 08:14:05;;;;;;;0.00;0.00;;;;;;;;;;6229414;23;20159;-80
2022/11/18 08:16:34;;;;;;;0.00;0.00;;;;;;;;;;6230698;23;20176;-80
2022/11/18 08:19:03;;;;;;;0.00;0.00;;;;;;;;;;6229940;23;20180;-81
2022/11/18 08:21:32;;;;;;;0.00;0.00;;;;;;;;;;6235291;23;20199;-80
2022/11/18 08:24:00;;;;;;;0.10;0.10;;;;;;;;;;6226637;23;20225;-80
2022/11/18 08:26:32;;;;;;;0.10;0.10;;;;;;;;;;6231776;23;20193;-80
2022/11/18 08:29:02;;;;;;;0.00;0.00;;;;;;;;;;6226922;23;20177;-79
2022/11/18 08:31:34;;;;;;;0.00;0.00;;;;;;;;;;6228882;23;20182;-80
2022/11/18 08:34:05;;;;;;;0.00;0.00;;;;;;;;;;6224104;23;20188;-80
2022/11/18 08:36:36;;;;;;;0.00;0.00;;;;;;;;;;6227665;23;20209;-80
2022/11/18 08:39:08;;;;;;;0.00;0.00;;;;;;;;;;6221926;23;20222;-80
2022/11/18 08:41:39;;;;;;;0.00;0.00;;;;;;;;;;6231843;23;20163;-79
2022/11/18 08:44:08;;;;;;;0.00;0.00;;;;;;;;;;6223231;23;20224;-79
2022/11/18 08:46:40;;;;;;;0.00;0.00;;;;;;;;;;6229750;23;20185;-80
2022/11/18 08:49:10;;;;;;;0.00;0.00;;;;;;;;;;6227562;23;20174;-80
2022/11/18 08:51:38;;;;;;;0.00;0.00;;;;;;;;;;6227444;23;20170;-79
2022/11/18 08:54:07;;;;;;;0.00;0.00;;;;;;;;;;6231185;23;20163;-80
2022/11/18 08:56:36;;;;;;;0.00;0.00;;;;;;;;;;6233052;23;20617;-80
2022/11/18 08:59:06;;;;;;;0.00;0.00;;;;;;;;;;6220271;23;20714;-79
2022/11/18 09:01:34;;;;;;;0.00;0.00;;;;;;;;;;6220285;23;20181;-79
2022/11/18 09:04:03;;;;;;;0.10;0.10;;;;;;;;;;6225101;23;20750;-80
2022/11/18 09:06:33;;;;;;;0.00;0.00;;;;;;;;;;6219535;23;20179;-80
2022/11/18 09:09:02;;;;;;;0.00;0.00;;;;;;;;;;6227522;23;20167;-80
2022/11/18 09:11:34;;;;;;;0.07;0.07;;;;;;;;;;6224906;23;20236;-79
2022/11/18 09:14:03;;;;;;;0.00;0.00;;;;;;;;;;6219552;23;20236;-79
2022/11/18 09:16:52;;;;;;;0.00;0.00;;;;;;;;;;6222599;23;20213;-79
2022/11/18 09:19:21;;;;;;;0.00;0.00;;;;;;;;;;6224413;23;20201;-79
2022/11/18 09:22:10;;;;;;;0.10;0.10;;;;;;;;;;6223215;23;20603;-79
2022/11/18 09:24:39;;;;;;;0.00;0.00;;;;;;;;;;6218346;23;20230;-79
2022/11/18 09:27:08;;;;;;;0.00;0.00;;;;;;;;;;6218778;23;20176;-79
2022/11/18 09:29:44;;;;;;;0.10;0.10;;;;;;;;;;6219489;23;20179;-80
2022/11/18 09:32:14;;;;;;;0.03;0.03;;;;;;;;;;6219649;23;20669;-79
2022/11/18 09:34:42;;;;;;;0.07;0.07;;;;;;;;;;6219591;23;20220;-79
2022/11/18 09:37:11;;;;;;;0.00;0.00;;;;;;;;;;6216771;23;20184;-79
2022/11/18 09:39:40;;;;;;;0.10;0.10;;;;;;;;;;6222252;23;20186;-79
2022/11/18 09:42:25;;;;;;;0.00;0.00;;;;;;;;;;6222573;23;20199;-80
2022/11/18 09:44:59;;;;;;;0.00;0.00;;;;;;;;;;6223647;23;20165;-80
2022/11/18 09:47:31;;;;;;;0.00;0.00;;;;;;;;;;6221867;23;20171;-79
2022/11/18 09:50:00;;;;;;;0.00;0.00;;;;;;;;;;6224636;23;20171;-79
2022/11/18 09:52:54;;;;;;;0.10;0.10;;;;;;;;;;6217793;23;20552;-80
2022/11/18 09:55:22;;;;;;;0.10;0.10;;;;;;;;;;6217989;23;20197;-79
2022/11/18 09:57:52;;;;;;;0.00;0.00;;;;;;;;;;6219516;23;20260;-79
2022/11/18 10:00:21;;;;;;;0.00;0.00;;;;;;;;;;6216528;23;20176;-79
2022/11/18 10:02:56;;;;;;;0.00;0.00;;;;;;;;;;6216759;23;20318;-79
2022/11/18 10:05:26;;;;;;;0.00;0.00;;;;;;;;;;6218543;23;20212;-79
2022/11/18 10:07:59;;;;;;;0.00;0.00;;;;;;;;;;6219455;23;20184;-79
2022/11/18 10:10:33;;;;;;;0.00;0.00;;;;;;;;;;6220799;23;20178;-80
2022/11/18 10:13:04;;;;;;;0.00;0.00;;;;;;;;;;6217261;23;20231;-79
2022/11/18 10:15:35;;;;;;;0.00;0.00;;;;;;;;;;6219586;23;20168;-80
2022/11/18 10:18:11;;;;;;;0.00;0.00;;;;;;;;;;6228174;23;20186;-80
2022/11/18 10:21:03;;;;;;;0.00;0.00;;;;;;;;;;6225588;23;20172;-80
2022/11/18 10:23:34;;;;;;;0.00;0.00;;;;;;;;;;6218433;23;20214;-79
2022/11/18 10:26:02;;;;;;;0.00;0.00;;;;;;;;;;6225068;23;20654;-79
2022/11/18 10:28:31;;;;;;;0.00;0.00;;;;;;;;;;6221611;23;20180;-79
2022/11/18 10:31:07;;;;;;;0.00;0.00;;;;;;;;;;6222523;23;20554;-79
2022/11/18 10:33:37;;;;;;;0.00;0.00;;;;;;;;;;6219583;23;20198;-79
2022/11/18 10:36:11;;;;;;;0.00;0.00;;;;;;;;;;6221399;23;20173;-79
2022/11/18 10:38:39;;;;;;;0.10;0.10;;;;;;;;;;6224155;23;20180;-80
2022/11/18 10:41:14;;;;;;;0.00;0.00;;;;;;;;;;6221736;23;20249;-80
2022/11/18 10:43:44;;;;;;;0.00;0.00;;;;;;;;;;6228711;23;20256;-79
2022/11/18 10:46:24;;;;;;;0.10;0.10;;;;;;;;;;6224984;23;20163;-80
2022/11/18 10:49:15;;;;;;;0.00;0.00;;;;;;;;;;6222811;23;20667;-79
2022/11/18 10:51:44;;;;;;;0.00;0.00;;;;;;;;;;6221945;23;20543;-79
2022/11/18 10:54:17;;;;;;;0.00;0.00;;;;;;;;;;6224051;23;20183;-80
2022/11/18 10:56:47;;;;;;;0.00;0.00;;;;;;;;;;6221140;23;20168;-79
2022/11/18 10:59:40;;;;;;;0.00;0.00;;;;;;;;;;6226707;23;20190;-80
2022/11/18 11:02:15;;;;;;;0.00;0.00;;;;;;;;;;6228978;23;20545;-79
2022/11/18 11:04:45;;;;;;;0.00;0.00;;;;;;;;;;6226062;23;20189;-79
2022/11/18 11:07:24;;;;;;;0.00;0.00;;;;;;;;;;6219705;23;20164;-79
2022/11/18 11:10:01;;;;;;;0.00;0.00;;;;;;;;;;6221953;23;20163;-79
2022/11/18 11:12:32;;;;;;;0.00;0.00;;;;;;;;;;6227751;23;20201;-79
2022/11/18 11:15:03;;;;;;;0.00;0.00;;;;;;;;;;6228995;23;20194;-80
2022/11/18 11:17:32;;;;;;;0.00;0.00;;;;;;;;;;6229088;23;20189;-80
2022/11/18 11:20:05;;;;;;;0.00;0.00;;;;;;;;;;6224045;23;20197;-80
2022/11/18 11:22:33;;;;;;;0.00;0.00;;;;;;;;;;6218623;23;20198;-79
2022/11/18 11:25:02;;;;;;;0.00;0.00;;;;;;;;;;6218549;23;20623;-79
2022/11/18 11:27:37;;;;;;;0.00;0.00;;;;;;;;;;6218919;23;20182;-79
2022/11/18 11:30:26;;;;;;;0.00;0.00;;;;;;;;;;6218750;23;20178;-79
2022/11/18 11:33:16;;;;;;;0.00;0.00;;;;;;;;;;6216943;23;20248;-79
2022/11/18 11:35:51;;;;;;;0.00;0.00;;;;;;;;;;6209478;23;20188;-79
2022/11/18 11:38:26;;;;;;;0.10;0.10;;;;;;;;;;6216734;23;20164;-79
2022/11/18 11:41:00;;;;;;;0.10;0.10;;;;;;;;;;6218224;23;20562;-78
2022/11/18 11:43:35;;;;;;;0.00;0.00;;;;;;;;;;6217268;23;20200;-78
2022/11/18 11:46:12;;;;;;;0.00;0.00;;;;;;;;;;6216724;23;20621;-79
2022/11/18 11:48:46;;;;;;;0.00;0.00;;;;;;;;;;6216692;23;20204;-79
2022/11/18 11:51:22;;;;;;;0.10;0.10;;;;;;;;;;6217414;23;20202;-78
2022/11/18 11:53:58;;;;;;;0.10;0.10;;;;;;;;;;6216489;23;20538;-79
2022/11/18 11:56:32;;;;;;;0.00;0.00;;;;;;;;;;6217541;23;20181;-79
2022/11/18 11:59:07;;;;;;;0.00;0.00;;;;;;;;;;6216193;23;20192;-79
2022/11/18 12:01:40;;;;;;;0.00;0.00;;;;;;;;;;6216755;23;20179;-79
2022/11/18 12:04:15;;;;;;;0.00;0.00;;;;;;;;;;6216573;23;20188;-79
2022/11/18 12:06:47;;;;;;;0.10;0.10;;;;;;;;;;6216160;23;20542;-79
2022/11/18 12:09:19;;;;;;;0.07;0.07;;;;;;;;;;6216265;23;20167;-78
2022/11/18 12:11:50;;;;;;;0.10;0.10;;;;;;;;;;6216927;23;20164;-79
2022/11/18 12:14:28;;;;;;;0.07;0.07;;;;;;;;;;6216353;23;20183;-79
2022/11/18 12:17:00;;;;;;;0.00;0.00;;;;;;;;;;6216703;23;20163;-78
2022/11/18 12:19:29;;;;;;;0.00;0.00;;;;;;;;;;6215977;23;20198;-78
2022/11/18 12:22:05;;;;;;;0.00;0.00;;;;;;;;;;6216372;23;20180;-79
2022/11/18 12:24:35;;;;;;;0.10;0.10;;;;;;;;;;6216633;23;20159;-79
2022/11/18 12:27:06;;;;;;;0.00;0.00;;;;;;;;;;6216427;23;20178;-79
2022/11/18 12:29:37;;;;;;;0.00;0.00;;;;;;;;;;6216715;23;20160;-79
2022/11/18 12:32:15;;;;;;;0.10;0.10;;;;;;;;;;6216657;23;20663;-79
2022/11/18 12:34:44;;;;;;;0.10;0.10;;;;;;;;;;6216630;23;20614;-79
2022/11/18 12:37:31;;;;;;;0.10;0.10;;;;;;;;;;6216278;23;20230;-79
2022/11/18 12:40:01;;;;;;;0.10;0.10;;;;;;;;;;6215917;23;20212;-79
2022/11/18 12:45:48;;;;;;;0.00;0.00;;;;;;;;;;6166046;23;20179;-79
2022/11/18 12:48:35;;;;;;;0.00;0.00;;;;;;;;;;6216304;23;20542;-78
2022/11/18 12:51:10;;;;;;;0.10;0.10;;;;;;;;;;6215954;23;20211;-79
2022/11/18 12:53:39;;;;;;;0.00;0.00;;;;;;;;;;6215772;23;20715;-79
2022/11/18 12:56:21;;;;;;;0.10;0.10;;;;;;;;;;6216244;23;20176;-79
2022/11/18 12:58:51;;;;;;;0.00;0.00;;;;;;;;;;6216673;23;20159;-79
2022/11/18 13:01:20;;;;;;;0.00;0.00;;;;;;;;;;6215896;23;20230;-79
2022/11/18 13:03:49;;;;;;;0.10;0.10;;;;;;;;;;6215788;23;20657;-78
2022/11/18 13:06:23;;;;;;;0.10;0.10;;;;;;;;;;6215801;23;20641;-79
2022/11/18 13:08:56;;;;;;;0.10;0.10;;;;;;;;;;6214836;23;20164;-78
2022/11/18 13:19:55;;;;;;;0.00;0.00;;;;;;;;;;6215855;23;20243;-78
2022/11/18 13:25:27;;;;;;;0.10;0.10;;;;;;;;;;6215629;23;20174;-77
2022/11/18 13:28:01;;;;;;;0.10;0.10;;;;;;;;;;6215690;23;20214;-78
2022/11/18 13:30:31;;;;;;;0.10;0.10;;;;;;;;;;6216063;23;20196;-77
2022/11/18 13:32:59;;;;;;;0.00;0.00;;;;;;;;;;6215935;23;20203;-78
2022/11/18 13:35:28;;;;;;;0.10;0.10;;;;;;;;;;6215816;23;20249;-77
2022/11/18 13:37:58;;;;;;;0.00;0.00;;;;;;;;;;6216443;23;20507;-78
2022/11/18 13:40:27;;;;;;;0.00;0.00;;;;;;;;;;6215923;23;20196;-78
2022/11/18 13:42:57;;;;;;;0.10;0.10;;;;;;;;;;6215773;23;20234;-77
2022/11/18 13:45:27;;;;;;;0.00;0.00;;;;;;;;;;6215605;23;20186;-78
2022/11/18 13:48:00;;;;;;;0.00;0.00;;;;;;;;;;6216076;23;20564;-77
2022/11/18 13:50:32;;;;;;;0.00;0.00;;;;;;;;;;6215541;23;20209;-77
2022/11/18 13:53:04;;;;;;;0.00;0.00;;;;;;;;;;6215681;23;20735;-78
2022/11/18 13:55:35;;;;;;;0.00;0.00;;;;;;;;;;6216152;23;20194;-77
2022/11/18 13:58:05;;;;;;;0.00;0.00;;;;;;;;;;6216509;23;20218;-77
2022/11/18 14:00:36;;;;;;;0.00;0.00;;;;;;;;;;6217555;23;20183;-77
2022/11/18 14:03:07;;;;;;;0.00;0.00;;;;;;;;;;6217677;23;20666;-77
2022/11/18 14:05:35;;;;;;;0.00;0.00;;;;;;;;;;6217175;23;20218;-77
2022/11/18 14:08:06;;;;;;;0.10;0.10;;;;;;;;;;6216826;23;20235;-78
2022/11/18 14:10:40;;;;;;;0.10;0.10;;;;;;;;;;6217297;23;20174;-77
2022/11/18 14:13:25;;;;;;;0.10;0.10;;;;;;;;;;6217416;23;20653;-77
2022/11/18 14:15:55;;;;;;;0.10;0.10;;;;;;;;;;6217618;23;20161;-77
2022/11/18 14:18:31;;;;;;;0.00;0.00;;;;;;;;;;6217353;23;20195;-78
2022/11/18 14:21:01;;;;;;;0.00;0.00;;;;;;;;;;6217125;23;20581;-78
2022/11/18 14:23:31;;;;;;;0.10;0.10;;;;;;;;;;6217088;23;20720;-77
2022/11/18 14:26:00;;;;;;;0.00;0.00;;;;;;;;;;6217101;23;20180;-77
2022/11/18 14:28:32;;;;;;;0.10;0.10;;;;;;;;;;6217665;23;20630;-77
2022/11/18 14:31:03;;;;;;;0.10;0.10;;;;;;;;;;6217714;23;20156;-78
2022/11/18 14:33:33;;;;;;;0.10;0.10;;;;;;;;;;6217324;23;20630;-78
2022/11/18 14:36:03;;;;;;;0.00;0.00;;;;;;;;;;6217367;23;20626;-77
2022/11/18 14:38:37;;;;;;;0.10;0.10;;;;;;;;;;6217536;23;20504;-77
2022/11/18 14:44:14;;;;;;;5.20;3.60;;;;;;;;;;6217247;23;20675;-78
2022/11/18 14:46:43;;;;;;;0.00;0.00;;;;;;;;;;6217454;23;20167;-78
2022/11/18 14:49:14;;;;;;;0.10;0.10;;;;;;;;;;6217432;23;20568;-78
2022/11/18 14:51:43;;;;;;;0.10;0.10;;;;;;;;;;6217372;23;20239;-77
2022/11/18 14:54:13;;;;;;;0.10;0.10;;;;;;;;;;6216792;23;20213;-79
2022/11/18 14:56:46;;;;;;;0.10;0.10;;;;;;;;;;6217798;23;20195;-79
2022/11/18 14:59:17;;;;;;;0.07;0.07;;;;;;;;;;6217017;23;20228;-79
2022/11/18 15:01:46;;;;;;;0.10;0.10;;;;;;;;;;6217568;23;20233;-79
2022/11/18 15:04:16;;;;;;;0.10;0.10;;;;;;;;;;6216910;23;20187;-79
2022/11/18 15:06:47;;;;;;;0.00;0.00;;;;;;;;;;6217664;23;20238;-78
2022/11/18 15:09:16;;;;;;;0.07;0.07;;;;;;;;;;6216916;23;20552;-79
2022/11/18 15:11:45;;;;;;;0.10;0.10;;;;;;;;;;6217039;23;20623;-79
2022/11/18 15:14:13;;;;;;;0.10;0.10;;;;;;;;;;6216378;23;20186;-77
2022/11/18 15:16:44;;;;;;;0.10;0.10;;;;;;;;;;6216133;23;20660;-79
2022/11/18 15:19:14;;;;;;;0.10;0.10;;;;;;;;;;6217014;23;20175;-78
2022/11/18 15:21:44;;;;;;;0.10;0.10;;;;;;;;;;6216391;23;20221;-78
2022/11/18 15:24:12;;;;;;;0.10;0.10;;;;;;;;;;6216350;23;20254;-78
2022/11/18 15:26:42;;;;;;;0.10;0.10;;;;;;;;;;6216813;23;20645;-79
2022/11/18 15:29:15;;;;;;;0.10;0.10;;;;;;;;;;6216498;23;20180;-79
2022/11/18 15:31:45;;;;;;;0.03;0.03;;;;;;;;;;6216584;23;20171;-79
2022/11/18 15:34:14;;;;;;;0.10;0.10;;;;;;;;;;6216676;23;20175;-78
2022/11/18 15:36:43;;;;;;;0.03;0.03;;;;;;;;;;6217400;23;20179;-78
2022/11/18 15:39:11;;;;;;;0.10;0.10;;;;;;;;;;6216624;23;20234;-78
2022/11/18 15:41:41;;;;;;;0.00;0.00;;;;;;;;;;6216904;23;20191;-78
2022/11/18 15:44:10;;;;;;;0.10;0.10;;;;;;;;;;6216557;23;20179;-79
2022/11/18 15:46:39;;;;;;;0.10;0.10;;;;;;;;;;6215119;23;20182;-79
2022/11/18 15:49:16;;;;;;;0.10;0.10;;;;;;;;;;6222670;23;20189;-79
2022/11/18 15:51:45;;;;;;;0.10;0.10;;;;;;;;;;6220753;23;20166;-79
2022/11/18 15:54:15;;;;;;;0.10;0.10;;;;;;;;;;6221507;23;20182;-80
2022/11/18 15:56:45;;;;;;;0.10;0.10;;;;;;;;;;6220104;23;20164;-79
2022/11/18 15:59:34;;;;;;;0.10;0.10;;;;;;;;;;6225664;23;20167;-79
2022/11/18 16:02:05;;;;;;;0.00;0.00;;;;;;;;;;6221225;23;20195;-79
2022/11/18 16:04:35;;;;;;;0.10;0.10;;;;;;;;;;6225126;23;20187;-79
2022/11/18 16:07:03;;;;;;;0.10;0.10;;;;;;;;;;6215709;23;20198;-79
2022/11/18 16:17:51;;;;;;;0.10;0.10;;;;;;;;;;6215888;23;20212;-79
2022/11/18 16:20:22;;;;;;;0.10;0.10;;;;;;;;;;6219523;23;20175;-79
2022/11/18 16:22:52;;;;;;;0.10;0.10;;;;;;;;;;6215942;23;20203;-79
2022/11/18 16:25:26;;;;;;;0.10;0.10;;;;;;;;;;6216265;23;20190;-79
2022/11/18 16:27:54;;;;;;;0.10;0.10;;;;;;;;;;6226279;23;20163;-79
2022/11/18 16:33:21;;;;;;;0.10;0.10;;;;;;;;;;6222468;23;20198;-79
2022/11/18 16:35:51;;;;;;;0.10;0.10;;;;;;;;;;6212954;23;20184;-78
2022/11/18 16:38:20;;;;;;;0.10;0.10;;;;;;;;;;6212784;23;20254;-78
2022/11/18 16:40:55;;;;;;;0.10;0.10;;;;;;;;;;6212391;23;20186;-78
2022/11/18 16:43:24;;;;;;;0.10;0.10;;;;;;;;;;6212638;23;20253;-78
2022/11/18 16:45:52;;;;;;;0.00;0.00;;;;;;;;;;6212856;23;20229;-78
2022/11/18 16:48:21;;;;;;;0.10;0.10;;;;;;;;;;6213709;23;20179;-78
2022/11/18 16:50:57;;;;;;;0.00;0.00;;;;;;;;;;6214141;23;20179;-79
2022/11/18 16:53:26;;;;;;;0.10;0.10;;;;;;;;;;6213535;23;20195;-79
2022/11/18 16:55:54;;;;;;;0.10;0.10;;;;;;;;;;6214321;23;20182;-79
2022/11/18 16:58:23;;;;;;;0.10;0.10;;;;;;;;;;6214238;23;20187;-79
2022/11/18 17:00:51;;;;;;;0.10;0.10;;;;;;;;;;6212607;23;20189;-78
2022/11/18 17:03:40;;;;;;;0.00;0.00;;;;;;;;;;6211129;23;21027;-78
2022/11/18 17:06:10;;;;;;;0.10;0.10;;;;;;;;;;6212867;23;20198;-79
2022/11/18 17:08:38;;;;;;;0.10;0.10;;;;;;;;;;6213683;23;20168;-78
2022/11/18 17:11:11;;;;;;;0.07;0.07;;;;;;;;;;6214400;23;20182;-78
2022/11/18 17:13:40;;;;;;;0.00;0.00;;;;;;;;;;6218233;23;20197;-80
2022/11/18 17:16:10;;;;;;;0.00;0.00;;;;;;;;;;6215576;23;20232;-79
2022/11/18 17:18:38;;;;;;;0.10;0.10;;;;;;;;;;6214515;23;20175;-79
2022/11/18 17:21:08;;;;;;;0.00;0.00;;;;;;;;;;6214955;23;20191;-79
2022/11/18 17:23:39;;;;;;;0.00;0.00;;;;;;;;;;6215747;23;20199;-79
2022/11/18 17:26:08;;;;;;;0.00;0.00;;;;;;;;;;6216103;23;20160;-79
2022/11/18 17:28:37;;;;;;;0.10;0.10;;;;;;;;;;6214263;23;20179;-78
2022/11/18 17:31:07;;;;;;;0.10;0.10;;;;;;;;;;6214320;23;20633;-79
2022/11/18 17:33:36;;;;;;;0.00;0.00;;;;;;;;;;6213928;23;20202;-78
2022/11/18 17:36:05;;;;;;;0.10;0.10;;;;;;;;;;6214302;23;20209;-79
2022/11/18 17:38:34;;;;;;;0.00;0.00;;;;;;;;;;6213961;23;20214;-79
2022/11/18 17:41:05;;;;;;;0.10;0.10;;;;;;;;;;6213624;23;20174;-78
2022/11/18 17:43:34;;;;;;;0.10;0.10;;;;;;;;;;6211539;23;20265;-79
2022/11/18 17:46:03;;;;;;;0.10;0.10;;;;;;;;;;6214292;23;20198;-78
2022/11/18 17:48:32;;;;;;;0.10;0.10;;;;;;;;;;6213529;23;20228;-78
2022/11/18 17:51:04;;;;;;;0.10;0.10;;;;;;;;;;6214235;23;20225;-79
2022/11/18 17:53:32;;;;;;;0.10;0.10;;;;;;;;;;6214719;23;20683;-80
2022/11/18 17:56:01;;;;;;;0.10;0.10;;;;;;;;;;6214027;23;20208;-79
2022/11/18 17:58:32;;;;;;;0.10;0.10;;;;;;;;;;6214166;23;20162;-79
2022/11/18 18:01:07;;;;;;;0.10;0.10;;;;;;;;;;6214801;23;20553;-78
2022/11/18 18:03:36;;;;;;;0.10;0.10;;;;;;;;;;6214011;23;20736;-78
2022/11/18 18:06:05;;;;;;;0.00;0.00;;;;;;;;;;6214180;23;20170;-79
2022/11/18 18:08:34;;;;;;;0.10;0.10;;;;;;;;;;6213988;23;20192;-79
2022/11/18 18:11:03;;;;;;;0.10;0.10;;;;;;;;;;6214353;23;20493;-79
2022/11/18 18:16:19;;;;;;;0.10;0.10;;;;;;;;;;6216119;23;20166;-79
2022/11/18 18:18:48;;;;;;;0.10;0.10;;;;;;;;;;6213710;23;20236;-79
2022/11/18 18:21:16;;;;;;;0.10;0.10;;;;;;;;;;6214138;23;20171;-78
2022/11/18 18:23:45;;;;;;;0.10;0.10;;;;;;;;;;6212536;23;20229;-78
2022/11/18 18:26:13;;;;;;;0.10;0.10;;;;;;;;;;6213148;23;20215;-79
2022/11/18 18:28:43;;;;;;;0.10;0.10;;;;;;;;;;6219220;23;20549;-79
2022/11/18 18:31:13;;;;;;;0.10;0.10;;;;;;;;;;6213828;23;20170;-79
2022/11/18 18:33:41;;;;;;;0.10;0.10;;;;;;;;;;6213637;23;20249;-78
2022/11/18 18:36:11;;;;;;;0.10;0.10;;;;;;;;;;6213960;23;20183;-79
2022/11/18 18:38:40;;;;;;;0.10;0.10;;;;;;;;;;6213828;23;20552;-79
2022/11/18 18:41:09;;;;;;;0.10;0.10;;;;;;;;;;6212535;23;20190;-79
2022/11/18 18:43:38;;;;;;;0.10;0.10;;;;;;;;;;6211227;23;20704;-78
2022/11/18 18:46:30;;;;;;;0.10;0.10;;;;;;;;;;6214994;23;20199;-78
2022/11/18 18:49:02;;;;;;;0.10;0.10;;;;;;;;;;6214822;23;20174;-77
2022/11/18 18:51:32;;;;;;;0.10;0.10;;;;;;;;;;6214515;23;20169;-79
2022/11/18 18:54:00;;;;;;;0.10;0.10;;;;;;;;;;6214885;23;20552;-78
2022/11/18 18:56:29;;;;;;;0.10;0.10;;;;;;;;;;6212583;23;20855;-77
2022/11/18 18:58:57;;;;;;;0.10;0.10;;;;;;;;;;6213673;23;20233;-77
2022/11/18 19:01:28;;;;;;;0.10;0.10;;;;;;;;;;6215637;23;20608;-78
2022/11/18 19:03:57;;;;;;;0.10;0.10;;;;;;;;;;6214205;23;20235;-77
2022/11/18 19:06:27;;;;;;;0.10;0.10;;;;;;;;;;6212729;23;20171;-77
2022/11/18 19:09:15;;;;;;;0.10;0.10;;;;;;;;;;6214317;23;20630;-77
2022/11/18 19:14:30;;;;;;;0.10;0.10;;;;;;;;;;6214684;23;20723;-77